sensor_id;sensor_type;location;lat;lon;timestamp;pressure;altitude;pressure_sealevel;temperature;humidity
64354;BME280;50681;53.334;-6.536;2024-02-23T00:02:14;97475.81;;;10.95;100.00
64354;BME280;50681;53.334;-6.536;2024-02-23T00:04:39;97474.81;;;11.45;100.00
64354;BME280;50681;53.334;-6.536;2024-02-23T00:07:04;97479.31;;;11.30;100.00
64354;BME280;50681;53.334;-6.536;2024-02-23T00:09:30;97474.41;;;11.09;100.00
64354;BME280;50681;53.334;-6.536;2024-02-23T00:11:55;97477.91;;;11.09;100.00
64354;BME280;50681;53.334;-6.536;2024-02-23T00:14:20;97471.59;;;10.98;100.00
64354;BME280;50681;53.334;-6.536;2024-02-23T00:16:46;97483.34;;;11.13;100.00
64354;BME280;50681;53.334;-6.536;2024-02-23T00:19:12;97483.41;;;10.86;100.00
64354;BME280;50681;53.334;-6.536;2024-02-23T00:21:38;97486.84;;;11.51;100.00
64354;BME280;50681;53.334;-6.536;2024-02-23T00:24:05;97495.00;;;12.48;100.00
64354;BME280;50681;53.334;-6.536;2024-02-23T00:26:31;97496.50;;;11.18;100.00
64354;BME280;50681;53.334;-6.536;2024-02-23T00:28:56;97499.13;;;11.45;100.00
64354;BME280;50681;53.334;-6.536;2024-02-23T00:31:22;97498.06;;;11.53;100.00
64354;BME280;50681;53.334;-6.536;2024-02-23T00:33:49;97506.41;;;11.79;100.00
64354;BME280;50681;53.334;-6.536;2024-02-23T00:36:15;97516.28;;;11.26;100.00
64354;BME280;50681;53.334;-6.536;2024-02-23T00:38:40;97522.94;;;11.32;100.00
64354;BME280;50681;53.334;-6.536;2024-02-23T00:41:06;97526.03;;;11.72;100.00
64354;BME280;50681;53.334;-6.536;2024-02-23T00:43:40;97521.16;;;11.85;100.00
64354;BME280;50681;53.334;-6.536;2024-02-23T00:46:07;97515.94;;;11.65;100.00
64354;BME280;50681;53.334;-6.536;2024-02-23T00:48:33;97504.13;;;11.43;100.00
64354;BME280;50681;53.334;-6.536;2024-02-23T00:50:58;97503.44;;;12.36;100.00
64354;BME280;50681;53.334;-6.536;2024-02-23T00:53:24;97507.69;;;12.33;100.00
64354;BME280;50681;53.334;-6.536;2024-02-23T00:55:49;97504.53;;;12.28;100.00
64354;BME280;50681;53.334;-6.536;2024-02-23T00:58:14;97503.84;;;11.93;100.00
64354;BME280;50681;53.334;-6.536;2024-02-23T01:00:41;97508.69;;;12.74;100.00
64354;BME280;50681;53.334;-6.536;2024-02-23T01:03:07;97515.19;;;12.06;100.00
64354;BME280;50681;53.334;-6.536;2024-02-23T01:05:32;97518.50;;;12.37;100.00
64354;BME280;50681;53.334;-6.536;2024-02-23T01:07:58;97517.94;;;12.69;100.00
64354;BME280;50681;53.334;-6.536;2024-02-23T01:10:23;97519.25;;;12.34;100.00
64354;BME280;50681;53.334;-6.536;2024-02-23T01:12:49;97511.94;;;12.34;100.00
64354;BME280;50681;53.334;-6.536;2024-02-23T01:15:14;97510.19;;;12.64;100.00
64354;BME280;50681;53.334;-6.536;2024-02-23T01:17:39;97500.66;;;12.29;100.00
64354;BME280;50681;53.334;-6.536;2024-02-23T01:20:05;97491.53;;;12.52;100.00
64354;BME280;50681;53.334;-6.536;2024-02-23T01:22:31;97497.13;;;12.81;100.00
64354;BME280;50681;53.334;-6.536;2024-02-23T01:24:56;97502.84;;;12.09;100.00
64354;BME280;50681;53.334;-6.536;2024-02-23T01:27:21;97494.81;;;12.79;100.00
64354;BME280;50681;53.334;-6.536;2024-02-23T01:29:47;97496.88;;;12.37;100.00
64354;BME280;50681;53.334;-6.536;2024-02-23T01:32:12;97497.59;;;11.85;100.00
64354;BME280;50681;53.334;-6.536;2024-02-23T01:34:38;97490.63;;;12.29;100.00
64354;BME280;50681;53.334;-6.536;2024-02-23T01:37:03;97491.03;;;11.86;100.00
64354;BME280;50681;53.334;-6.536;2024-02-23T01:39:29;97494.81;;;12.19;100.00
64354;BME280;50681;53.334;-6.536;2024-02-23T01:41:54;97489.13;;;11.87;100.00
64354;BME280;50681;53.334;-6.536;2024-02-23T01:44:20;97494.47;;;11.80;100.00
64354;BME280;50681;53.334;-6.536;2024-02-23T01:46:46;97488.53;;;11.67;100.00
64354;BME280;50681;53.334;-6.536;2024-02-23T01:49:13;97481.72;;;12.29;100.00
64354;BME280;50681;53.334;-6.536;2024-02-23T01:51:39;97486.44;;;12.39;100.00
64354;BME280;50681;53.334;-6.536;2024-02-23T01:54:05;97473.56;;;11.35;100.00
64354;BME280;50681;53.334;-6.536;2024-02-23T01:56:32;97478.06;;;12.03;100.00
64354;BME280;50681;53.334;-6.536;2024-02-23T01:58:59;97469.72;;;11.36;100.00
64354;BME280;50681;53.334;-6.536;2024-02-23T02:01:25;97458.47;;;11.72;100.00
64354;BME280;50681;53.334;-6.536;2024-02-23T02:03:58;97463.31;;;12.49;100.00
64354;BME280;50681;53.334;-6.536;2024-02-23T02:06:24;97444.47;;;12.04;100.00
64354;BME280;50681;53.334;-6.536;2024-02-23T02:08:50;97446.75;;;11.57;100.00
64354;BME280;50681;53.334;-6.536;2024-02-23T02:11:15;97449.66;;;11.79;100.00
64354;BME280;50681;53.334;-6.536;2024-02-23T02:13:41;97454.22;;;11.71;100.00
64354;BME280;50681;53.334;-6.536;2024-02-23T02:16:06;97458.50;;;11.75;100.00
64354;BME280;50681;53.334;-6.536;2024-02-23T02:18:32;97464.16;;;11.59;100.00
64354;BME280;50681;53.334;-6.536;2024-02-23T02:20:57;97467.28;;;11.27;100.00
64354;BME280;50681;53.334;-6.536;2024-02-23T02:23:24;97472.78;;;11.35;100.00
64354;BME280;50681;53.334;-6.536;2024-02-23T02:25:58;97468.84;;;11.28;100.00
64354;BME280;50681;53.334;-6.536;2024-02-23T02:28:24;97468.69;;;11.14;100.00
64354;BME280;50681;53.334;-6.536;2024-02-23T02:30:51;97478.44;;;11.60;100.00
64354;BME280;50681;53.334;-6.536;2024-02-23T02:33:16;97472.44;;;11.40;100.00
64354;BME280;50681;53.334;-6.536;2024-02-23T02:35:42;97483.19;;;11.70;100.00
64354;BME280;50681;53.334;-6.536;2024-02-23T02:38:07;97477.66;;;11.59;100.00
64354;BME280;50681;53.334;-6.536;2024-02-23T02:40:33;97474.47;;;11.50;100.00
64354;BME280;50681;53.334;-6.536;2024-02-23T02:42:58;97479.81;;;13.03;100.00
64354;BME280;50681;53.334;-6.536;2024-02-23T02:45:23;97484.75;;;11.75;100.00
64354;BME280;50681;53.334;-6.536;2024-02-23T02:47:49;97483.28;;;10.75;100.00
64354;BME280;50681;53.334;-6.536;2024-02-23T02:50:17;97489.47;;;11.10;100.00
64354;BME280;50681;53.334;-6.536;2024-02-23T02:52:42;97496.34;;;11.03;100.00
64354;BME280;50681;53.334;-6.536;2024-02-23T02:55:08;97494.63;;;11.22;100.00
64354;BME280;50681;53.334;-6.536;2024-02-23T02:57:34;97485.75;;;10.87;100.00
64354;BME280;50681;53.334;-6.536;2024-02-23T03:00:02;97488.75;;;11.13;100.00
64354;BME280;50681;53.334;-6.536;2024-02-23T03:02:30;97490.00;;;10.88;100.00
64354;BME280;50681;53.334;-6.536;2024-02-23T03:04:56;97495.75;;;10.87;100.00
64354;BME280;50681;53.334;-6.536;2024-02-23T03:07:21;97498.78;;;11.12;100.00
64354;BME280;50681;53.334;-6.536;2024-02-23T03:09:46;97496.84;;;11.13;100.00
64354;BME280;50681;53.334;-6.536;2024-02-23T03:12:12;97499.50;;;11.09;100.00
64354;BME280;50681;53.334;-6.536;2024-02-23T03:14:38;97493.91;;;11.25;100.00
64354;BME280;50681;53.334;-6.536;2024-02-23T03:17:06;97504.88;;;10.48;100.00
64354;BME280;50681;53.334;-6.536;2024-02-23T03:19:34;97501.06;;;11.10;100.00
64354;BME280;50681;53.334;-6.536;2024-02-23T03:22:00;97501.84;;;10.50;100.00
64354;BME280;50681;53.334;-6.536;2024-02-23T03:24:25;97509.09;;;10.46;100.00
64354;BME280;50681;53.334;-6.536;2024-02-23T03:26:51;97503.41;;;10.81;100.00
64354;BME280;50681;53.334;-6.536;2024-02-23T03:29:18;97514.34;;;11.26;100.00
64354;BME280;50681;53.334;-6.536;2024-02-23T03:31:43;97511.34;;;10.70;100.00
64354;BME280;50681;53.334;-6.536;2024-02-23T03:34:09;97518.06;;;10.84;100.00
64354;BME280;50681;53.334;-6.536;2024-02-23T03:36:34;97507.09;;;10.69;100.00
64354;BME280;50681;53.334;-6.536;2024-02-23T03:39:01;97507.06;;;10.96;100.00
64354;BME280;50681;53.334;-6.536;2024-02-23T03:41:26;97508.03;;;11.11;100.00
64354;BME280;50681;53.334;-6.536;2024-02-23T03:43:52;97507.19;;;10.77;100.00
64354;BME280;50681;53.334;-6.536;2024-02-23T03:46:17;97507.34;;;10.57;100.00
64354;BME280;50681;53.334;-6.536;2024-02-23T03:48:44;97510.91;;;10.95;100.00
64354;BME280;50681;53.334;-6.536;2024-02-23T03:51:10;97519.72;;;11.23;100.00
64354;BME280;50681;53.334;-6.536;2024-02-23T03:53:35;97503.72;;;10.76;100.00
64354;BME280;50681;53.334;-6.536;2024-02-23T03:56:01;97501.66;;;10.96;100.00
64354;BME280;50681;53.334;-6.536;2024-02-23T03:58:26;97497.81;;;10.97;100.00
64354;BME280;50681;53.334;-6.536;2024-02-23T04:00:51;97494.59;;;11.18;100.00
64354;BME280;50681;53.334;-6.536;2024-02-23T04:03:17;97499.13;;;11.45;100.00
64354;BME280;50681;53.334;-6.536;2024-02-23T04:05:42;97498.75;;;10.78;100.00
64354;BME280;50681;53.334;-6.536;2024-02-23T04:08:09;97497.91;;;11.39;100.00
64354;BME280;50681;53.334;-6.536;2024-02-23T04:10:34;97501.22;;;11.25;100.00
64354;BME280;50681;53.334;-6.536;2024-02-23T04:13:00;97499.28;;;11.22;100.00
64354;BME280;50681;53.334;-6.536;2024-02-23T04:15:26;97501.09;;;10.53;100.00
64354;BME280;50681;53.334;-6.536;2024-02-23T04:17:51;97490.59;;;11.05;100.00
64354;BME280;50681;53.334;-6.536;2024-02-23T04:20:17;97502.56;;;10.47;100.00
64354;BME280;50681;53.334;-6.536;2024-02-23T04:22:43;97492.13;;;10.76;100.00
64354;BME280;50681;53.334;-6.536;2024-02-23T04:25:08;97487.84;;;11.36;100.00
64354;BME280;50681;53.334;-6.536;2024-02-23T04:27:33;97488.25;;;11.03;100.00
64354;BME280;50681;53.334;-6.536;2024-02-23T04:30:18;97487.66;;;11.97;100.00
64354;BME280;50681;53.334;-6.536;2024-02-23T04:32:43;97481.94;;;10.92;100.00
64354;BME280;50681;53.334;-6.536;2024-02-23T04:35:09;97491.09;;;10.84;100.00
64354;BME280;50681;53.334;-6.536;2024-02-23T04:37:35;97483.03;;;10.87;100.00
64354;BME280;50681;53.334;-6.536;2024-02-23T04:40:00;97487.16;;;11.08;100.00
64354;BME280;50681;53.334;-6.536;2024-02-23T04:42:26;97481.44;;;10.52;100.00
64354;BME280;50681;53.334;-6.536;2024-02-23T04:44:52;97484.81;;;11.07;100.00
64354;BME280;50681;53.334;-6.536;2024-02-23T04:47:20;97490.72;;;10.85;100.00
64354;BME280;50681;53.334;-6.536;2024-02-23T04:49:46;97482.66;;;10.89;100.00
64354;BME280;50681;53.334;-6.536;2024-02-23T04:52:11;97490.22;;;11.07;100.00
64354;BME280;50681;53.334;-6.536;2024-02-23T04:54:42;97489.38;;;11.02;100.00
64354;BME280;50681;53.334;-6.536;2024-02-23T04:57:07;97489.84;;;11.08;100.00
64354;BME280;50681;53.334;-6.536;2024-02-23T04:59:33;97489.72;;;10.97;100.00
64354;BME280;50681;53.334;-6.536;2024-02-23T05:01:58;97496.63;;;10.95;100.00
64354;BME280;50681;53.334;-6.536;2024-02-23T05:04:24;97490.22;;;11.07;100.00
64354;BME280;50681;53.334;-6.536;2024-02-23T05:06:51;97500.22;;;10.76;100.00
64354;BME280;50681;53.334;-6.536;2024-02-23T05:09:17;97493.34;;;10.78;100.00
64354;BME280;50681;53.334;-6.536;2024-02-23T05:11:42;97491.81;;;10.81;100.00
64354;BME280;50681;53.334;-6.536;2024-02-23T05:14:08;97492.22;;;10.83;100.00
64354;BME280;50681;53.334;-6.536;2024-02-23T05:16:33;97502.63;;;11.11;100.00
64354;BME280;50681;53.334;-6.536;2024-02-23T05:18:59;97491.91;;;10.57;100.00
64354;BME280;50681;53.334;-6.536;2024-02-23T05:21:24;97502.00;;;10.64;100.00
64354;BME280;50681;53.334;-6.536;2024-02-23T05:23:51;97503.94;;;10.64;100.00
64354;BME280;50681;53.334;-6.536;2024-02-23T05:26:16;97503.22;;;10.97;100.00
64354;BME280;50681;53.334;-6.536;2024-02-23T05:28:42;97500.84;;;10.92;100.00
64354;BME280;50681;53.334;-6.536;2024-02-23T05:31:09;97503.72;;;11.41;100.00
64354;BME280;50681;53.334;-6.536;2024-02-23T05:33:34;97512.53;;;11.03;100.00
64354;BME280;50681;53.334;-6.536;2024-02-23T05:36:00;97516.16;;;10.54;100.00
64354;BME280;50681;53.334;-6.536;2024-02-23T05:38:25;97508.81;;;10.81;100.00
64354;BME280;50681;53.334;-6.536;2024-02-23T05:40:53;97506.97;;;10.89;100.00
64354;BME280;50681;53.334;-6.536;2024-02-23T05:43:19;97518.50;;;10.32;100.00
64354;BME280;50681;53.334;-6.536;2024-02-23T05:45:44;97522.06;;;10.94;100.00
64354;BME280;50681;53.334;-6.536;2024-02-23T05:48:10;97522.09;;;10.40;100.00
64354;BME280;50681;53.334;-6.536;2024-02-23T05:50:36;97518.91;;;10.61;100.00
64354;BME280;50681;53.334;-6.536;2024-02-23T05:53:02;97512.78;;;10.91;100.00
64354;BME280;50681;53.334;-6.536;2024-02-23T05:55:29;97520.00;;;10.53;100.00
64354;BME280;50681;53.334;-6.536;2024-02-23T05:57:55;97518.13;;;10.57;100.00
64354;BME280;50681;53.334;-6.536;2024-02-23T06:00:21;97523.66;;;10.41;100.00
64354;BME280;50681;53.334;-6.536;2024-02-23T06:02:47;97520.22;;;10.44;100.00
64354;BME280;50681;53.334;-6.536;2024-02-23T06:05:12;97520.06;;;10.33;100.00
64354;BME280;50681;53.334;-6.536;2024-02-23T06:07:38;97525.22;;;10.42;100.00
64354;BME280;50681;53.334;-6.536;2024-02-23T06:10:04;97519.69;;;10.58;100.00
64354;BME280;50681;53.334;-6.536;2024-02-23T06:12:30;97520.78;;;10.30;100.00
64354;BME280;50681;53.334;-6.536;2024-02-23T06:14:55;97518.38;;;10.25;100.00
64354;BME280;50681;53.334;-6.536;2024-02-23T06:17:22;97517.78;;;10.35;100.00
64354;BME280;50681;53.334;-6.536;2024-02-23T06:19:48;97519.00;;;10.14;100.00
64354;BME280;50681;53.334;-6.536;2024-02-23T06:22:14;97527.25;;;10.49;100.00
64354;BME280;50681;53.334;-6.536;2024-02-23T06:24:42;97531.69;;;10.64;100.00
64354;BME280;50681;53.334;-6.536;2024-02-23T06:27:07;97539.22;;;10.51;100.00
64354;BME280;50681;53.334;-6.536;2024-02-23T06:29:33;97536.53;;;10.28;100.00
64354;BME280;50681;53.334;-6.536;2024-02-23T06:31:58;97543.91;;;10.08;100.00
64354;BME280;50681;53.334;-6.536;2024-02-23T06:34:26;97539.66;;;9.83;100.00
64354;BME280;50681;53.334;-6.536;2024-02-23T06:36:51;97551.63;;;10.56;100.00
64354;BME280;50681;53.334;-6.536;2024-02-23T06:39:17;97553.00;;;10.46;100.00
64354;BME280;50681;53.334;-6.536;2024-02-23T06:41:43;97557.00;;;10.33;100.00
64354;BME280;50681;53.334;-6.536;2024-02-23T06:44:08;97565.47;;;10.31;100.00
64354;BME280;50681;53.334;-6.536;2024-02-23T06:46:34;97567.34;;;10.27;100.00
64354;BME280;50681;53.334;-6.536;2024-02-23T06:48:59;97562.16;;;10.65;100.00
64354;BME280;50681;53.334;-6.536;2024-02-23T06:51:25;97579.31;;;10.80;100.00
64354;BME280;50681;53.334;-6.536;2024-02-23T06:53:50;97569.75;;;11.13;100.00
64354;BME280;50681;53.334;-6.536;2024-02-23T06:56:16;97569.16;;;10.96;100.00
64354;BME280;50681;53.334;-6.536;2024-02-23T06:58:41;97566.19;;;11.05;100.00
64354;BME280;50681;53.334;-6.536;2024-02-23T07:01:06;97569.88;;;10.66;100.00
64354;BME280;50681;53.334;-6.536;2024-02-23T07:03:36;97567.47;;;11.15;100.00
64354;BME280;50681;53.334;-6.536;2024-02-23T07:06:02;97576.38;;;9.92;100.00
64354;BME280;50681;53.334;-6.536;2024-02-23T07:08:29;97572.84;;;11.15;100.00
64354;BME280;50681;53.334;-6.536;2024-02-23T07:10:55;97576.78;;;11.21;100.00
64354;BME280;50681;53.334;-6.536;2024-02-23T07:13:20;97571.13;;;10.46;100.00
64354;BME280;50681;53.334;-6.536;2024-02-23T07:15:46;97574.97;;;10.71;100.00
64354;BME280;50681;53.334;-6.536;2024-02-23T07:18:11;97557.84;;;10.87;100.00
64354;BME280;50681;53.334;-6.536;2024-02-23T07:20:36;97572.84;;;10.57;100.00
64354;BME280;50681;53.334;-6.536;2024-02-23T07:23:02;97569.00;;;10.58;100.00
64354;BME280;50681;53.334;-6.536;2024-02-23T07:25:27;97571.94;;;10.77;100.00
64354;BME280;50681;53.334;-6.536;2024-02-23T07:27:53;97575.84;;;10.52;100.00
64354;BME280;50681;53.334;-6.536;2024-02-23T07:30:18;97578.47;;;10.72;100.00
64354;BME280;50681;53.334;-6.536;2024-02-23T07:32:45;97578.88;;;10.27;100.00
64354;BME280;50681;53.334;-6.536;2024-02-23T07:35:11;97586.31;;;11.11;100.00
64354;BME280;50681;53.334;-6.536;2024-02-23T07:37:37;97585.34;;;10.96;100.00
64354;BME280;50681;53.334;-6.536;2024-02-23T07:40:03;97587.47;;;11.10;100.00
64354;BME280;50681;53.334;-6.536;2024-02-23T07:42:29;97587.47;;;11.10;100.00
64354;BME280;50681;53.334;-6.536;2024-02-23T07:44:55;97589.75;;;11.73;100.00
64354;BME280;50681;53.334;-6.536;2024-02-23T07:47:21;97581.88;;;11.95;100.00
64354;BME280;50681;53.334;-6.536;2024-02-23T07:49:47;97591.63;;;11.65;100.00
64354;BME280;50681;53.334;-6.536;2024-02-23T07:52:12;97585.22;;;11.81;100.00
64354;BME280;50681;53.334;-6.536;2024-02-23T07:54:37;97584.38;;;12.11;100.00
64354;BME280;50681;53.334;-6.536;2024-02-23T07:57:03;97580.56;;;11.77;100.00
64354;BME280;50681;53.334;-6.536;2024-02-23T07:59:30;97588.47;;;11.97;100.00
64354;BME280;50681;53.334;-6.536;2024-02-23T08:01:56;97584.84;;;11.48;100.00
64354;BME280;50681;53.334;-6.536;2024-02-23T08:04:21;97587.13;;;11.80;100.00
64354;BME280;50681;53.334;-6.536;2024-02-23T08:06:47;97584.84;;;11.48;100.00
64354;BME280;50681;53.334;-6.536;2024-02-23T08:09:13;97591.22;;;11.67;100.00
64354;BME280;50681;53.334;-6.536;2024-02-23T08:11:39;97590.59;;;12.15;100.00
64354;BME280;50681;53.334;-6.536;2024-02-23T08:14:04;97595.97;;;11.77;100.00
64354;BME280;50681;53.334;-6.536;2024-02-23T08:16:29;97591.13;;;12.31;99.37
64354;BME280;50681;53.334;-6.536;2024-02-23T08:18:55;97595.78;;;11.93;100.00
64354;BME280;50681;53.334;-6.536;2024-02-23T08:21:20;97605.88;;;12.38;97.93
64354;BME280;50681;53.334;-6.536;2024-02-23T08:23:45;97606.59;;;11.93;96.43
64354;BME280;50681;53.334;-6.536;2024-02-23T08:26:11;97611.59;;;11.91;96.44
64354;BME280;50681;53.334;-6.536;2024-02-23T08:28:36;97613.84;;;11.85;98.19
64354;BME280;50681;53.334;-6.536;2024-02-23T08:31:02;97617.84;;;11.99;98.43
64354;BME280;50681;53.334;-6.536;2024-02-23T08:33:27;97606.63;;;11.62;98.15
64354;BME280;50681;53.334;-6.536;2024-02-23T08:35:53;97617.13;;;11.68;97.31
64354;BME280;50681;53.334;-6.536;2024-02-23T08:38:19;97620.53;;;11.99;100.00
64354;BME280;50681;53.334;-6.536;2024-02-23T08:40:44;97621.44;;;11.76;98.86
64354;BME280;50681;53.334;-6.536;2024-02-23T08:43:14;97620.19;;;11.66;100.00
64354;BME280;50681;53.334;-6.536;2024-02-23T08:45:39;97620.47;;;11.91;100.00
64354;BME280;50681;53.334;-6.536;2024-02-23T08:48:05;97623.06;;;12.15;98.38
64354;BME280;50681;53.334;-6.536;2024-02-23T08:50:30;97622.69;;;12.16;97.88
64354;BME280;50681;53.334;-6.536;2024-02-23T08:52:56;97628.00;;;12.09;99.18
64354;BME280;50681;53.334;-6.536;2024-02-23T08:55:21;97634.09;;;12.40;98.25
64354;BME280;50681;53.334;-6.536;2024-02-23T08:57:50;97647.06;;;12.20;99.78
64354;BME280;50681;53.334;-6.536;2024-02-23T09:00:15;97651.00;;;11.92;99.79
64354;BME280;50681;53.334;-6.536;2024-02-23T09:02:41;97653.84;;;12.44;98.28
64354;BME280;50681;53.334;-6.536;2024-02-23T09:05:10;97665.41;;;12.83;99.56
64354;BME280;50681;53.334;-6.536;2024-02-23T09:07:36;97668.16;;;12.90;97.09
64354;BME280;50681;53.334;-6.536;2024-02-23T09:10:02;97659.84;;;12.23;96.56
64354;BME280;50681;53.334;-6.536;2024-02-23T09:12:29;97667.91;;;12.61;97.76
64354;BME280;50681;53.334;-6.536;2024-02-23T09:14:54;97673.06;;;12.73;95.90
64354;BME280;50681;53.334;-6.536;2024-02-23T09:17:20;97666.97;;;12.39;96.62
64354;BME280;50681;53.334;-6.536;2024-02-23T09:19:46;97669.50;;;13.14;97.05
64354;BME280;50681;53.334;-6.536;2024-02-23T09:22:11;97661.81;;;13.27;96.07
64354;BME280;50681;53.334;-6.536;2024-02-23T09:24:40;97664.22;;;13.40;97.19
64354;BME280;50681;53.334;-6.536;2024-02-23T09:27:06;97659.22;;;12.86;96.55
64354;BME280;50681;53.334;-6.536;2024-02-23T09:29:32;97658.66;;;12.62;97.33
64354;BME280;50681;53.334;-6.536;2024-02-23T09:31:57;97651.91;;;12.86;97.36
64354;BME280;50681;53.334;-6.536;2024-02-23T09:34:23;97646.88;;;12.43;95.73
64354;BME280;50681;53.334;-6.536;2024-02-23T09:36:50;97654.94;;;12.36;96.83
64354;BME280;50681;53.334;-6.536;2024-02-23T09:39:15;97656.13;;;12.39;95.77
64354;BME280;50681;53.334;-6.536;2024-02-23T09:41:42;97656.19;;;13.54;95.32
64354;BME280;50681;53.334;-6.536;2024-02-23T09:44:08;97655.19;;;13.17;96.14
64354;BME280;50681;53.334;-6.536;2024-02-23T09:46:36;97657.38;;;13.60;97.05
64354;BME280;50681;53.334;-6.536;2024-02-23T09:49:02;97660.28;;;13.26;93.56
64354;BME280;50681;53.334;-6.536;2024-02-23T09:51:29;97660.03;;;13.49;94.72
64354;BME280;50681;53.334;-6.536;2024-02-23T09:53:54;97653.16;;;13.03;93.94
64354;BME280;50681;53.334;-6.536;2024-02-23T09:56:23;97658.00;;;14.28;92.97
64354;BME280;50681;53.334;-6.536;2024-02-23T09:58:52;97656.84;;;14.50;91.54
64354;BME280;50681;53.334;-6.536;2024-02-23T10:01:21;97667.94;;;13.80;88.05
64354;BME280;50681;53.334;-6.536;2024-02-23T10:03:51;97662.53;;;13.87;89.60
64354;BME280;50681;53.334;-6.536;2024-02-23T10:06:16;97662.13;;;13.85;87.85
64354;BME280;50681;53.334;-6.536;2024-02-23T10:08:42;97666.31;;;13.68;88.13
64354;BME280;50681;53.334;-6.536;2024-02-23T10:11:07;97673.63;;;13.57;90.42
64354;BME280;50681;53.334;-6.536;2024-02-23T10:13:33;97682.03;;;14.25;89.31
64354;BME280;50681;53.334;-6.536;2024-02-23T10:16:00;97682.41;;;14.20;89.65
64354;BME280;50681;53.334;-6.536;2024-02-23T10:18:27;97684.72;;;14.18;90.02
64354;BME280;50681;53.334;-6.536;2024-02-23T10:20:52;97696.03;;;14.67;87.09
64354;BME280;50681;53.334;-6.536;2024-02-23T10:23:18;97693.66;;;14.33;88.64
64354;BME280;50681;53.334;-6.536;2024-02-23T10:25:45;97688.66;;;15.40;86.51
64354;BME280;50681;53.334;-6.536;2024-02-23T10:28:12;97703.72;;;14.29;87.10
64354;BME280;50681;53.334;-6.536;2024-02-23T10:30:37;97710.44;;;14.82;89.11
64354;BME280;50681;53.334;-6.536;2024-02-23T10:33:06;97699.13;;;14.44;86.82
64354;BME280;50681;53.334;-6.536;2024-02-23T10:35:32;97713.69;;;13.92;87.49
64354;BME280;50681;53.334;-6.536;2024-02-23T10:38:01;97714.66;;;14.69;90.03
64354;BME280;50681;53.334;-6.536;2024-02-23T10:40:29;97714.72;;;14.91;89.09
64354;BME280;50681;53.334;-6.536;2024-02-23T10:42:57;97718.41;;;14.14;88.06
64354;BME280;50681;53.334;-6.536;2024-02-23T10:45:36;97721.31;;;14.93;87.06
64354;BME280;50681;53.334;-6.536;2024-02-23T10:48:04;97720.13;;;14.87;86.37
64354;BME280;50681;53.334;-6.536;2024-02-23T10:50:29;97717.69;;;14.38;85.15
64354;BME280;50681;53.334;-6.536;2024-02-23T10:52:58;97722.84;;;14.76;85.56
64354;BME280;50681;53.334;-6.536;2024-02-23T10:55:25;97730.22;;;15.19;84.18
64354;BME280;50681;53.334;-6.536;2024-02-23T10:57:52;97728.25;;;15.45;84.30
64354;BME280;50681;53.334;-6.536;2024-02-23T11:00:18;97726.03;;;16.33;81.45
64354;BME280;50681;53.334;-6.536;2024-02-23T11:02:53;97727.03;;;15.71;84.19
64354;BME280;50681;53.334;-6.536;2024-02-23T11:05:23;97722.06;;;14.76;84.46
64354;BME280;50681;53.334;-6.536;2024-02-23T11:07:50;97738.00;;;15.10;84.53
64354;BME280;50681;53.334;-6.536;2024-02-23T11:10:16;97736.81;;;15.51;84.30
64354;BME280;50681;53.334;-6.536;2024-02-23T11:12:43;97731.38;;;15.25;83.85
64354;BME280;50681;53.334;-6.536;2024-02-23T11:15:09;97741.41;;;14.45;83.51
64354;BME280;50681;53.334;-6.536;2024-02-23T11:17:36;97744.22;;;15.25;83.29
64354;BME280;50681;53.334;-6.536;2024-02-23T11:20:04;97745.75;;;15.22;83.58
64354;BME280;50681;53.334;-6.536;2024-02-23T11:22:31;97739.53;;;15.43;82.52
64354;BME280;50681;53.334;-6.536;2024-02-23T11:25:03;97754.91;;;16.12;81.11
64354;BME280;50681;53.334;-6.536;2024-02-23T11:27:33;97757.38;;;15.41;81.03
64354;BME280;50681;53.334;-6.536;2024-02-23T11:32:40;97758.13;;;15.78;80.42
64354;BME280;50681;53.334;-6.536;2024-02-23T11:35:07;97764.38;;;15.56;81.42
64354;BME280;50681;53.334;-6.536;2024-02-23T11:37:43;97755.25;;;16.25;79.49
64354;BME280;50681;53.334;-6.536;2024-02-23T11:40:09;97754.25;;;15.64;80.42
64354;BME280;50681;53.334;-6.536;2024-02-23T11:42:36;97757.41;;;14.87;82.89
64354;BME280;50681;53.334;-6.536;2024-02-23T11:45:06;97756.63;;;15.29;83.04
64354;BME280;50681;53.334;-6.536;2024-02-23T11:47:31;97764.16;;;14.19;84.12
64354;BME280;50681;53.334;-6.536;2024-02-23T11:49:56;97756.78;;;14.16;84.61
64354;BME280;50681;53.334;-6.536;2024-02-23T11:52:22;97754.28;;;15.10;83.81
64354;BME280;50681;53.334;-6.536;2024-02-23T11:54:48;97746.34;;;14.18;82.75
64354;BME280;50681;53.334;-6.536;2024-02-23T11:57:14;97756.50;;;14.43;81.91
64354;BME280;50681;53.334;-6.536;2024-02-23T11:59:40;97758.59;;;15.14;81.03
64354;BME280;50681;53.334;-6.536;2024-02-23T12:02:06;97739.47;;;14.53;81.25
64354;BME280;50681;53.334;-6.536;2024-02-23T12:04:33;97746.16;;;15.06;81.46
64354;BME280;50681;53.334;-6.536;2024-02-23T12:06:59;97725.56;;;14.80;79.86
64354;BME280;50681;53.334;-6.536;2024-02-23T12:09:25;97743.44;;;14.99;78.71
64354;BME280;50681;53.334;-6.536;2024-02-23T12:11:51;97742.94;;;13.54;79.87
64354;BME280;50681;53.334;-6.536;2024-02-23T12:14:17;97739.06;;;14.51;79.65
64354;BME280;50681;53.334;-6.536;2024-02-23T12:16:43;97736.81;;;15.11;77.78
64354;BME280;50681;53.334;-6.536;2024-02-23T12:19:08;97737.50;;;14.39;78.61
64354;BME280;50681;53.334;-6.536;2024-02-23T12:21:34;97739.16;;;14.98;78.41
64354;BME280;50681;53.334;-6.536;2024-02-23T12:24:04;97725.56;;;15.16;77.95
64354;BME280;50681;53.334;-6.536;2024-02-23T12:26:29;97736.44;;;15.09;76.11
64354;BME280;50681;53.334;-6.536;2024-02-23T12:29:00;97738.66;;;15.86;76.09
64354;BME280;50681;53.334;-6.536;2024-02-23T12:31:28;97734.44;;;14.59;75.01
64354;BME280;50681;53.334;-6.536;2024-02-23T12:33:53;97735.69;;;14.94;74.77
64354;BME280;50681;53.334;-6.536;2024-02-23T12:36:19;97723.63;;;15.27;74.53
64354;BME280;50681;53.334;-6.536;2024-02-23T12:38:44;97720.25;;;16.23;74.77
64354;BME280;50681;53.334;-6.536;2024-02-23T12:41:10;97726.31;;;15.53;75.61